Time;durP1;ratioP1;P1;durP2;ratioP2;P2;SDS_P1;SDS_P2;PMS_P1;PMS_P2;Temp;Humidity;BMP_temperature;BMP_pressure;BME280_temperature;BME280_humidity;BME280_pressure;Samples;Min_cycle;Max_cycle;Signal;HPM_P1;HPM_P2
2022/10/17 00:00:13;;;;;;;27.62;20.85;;;;;;;13.38;100.00;99731.72;2157907;82;20954;-86
2022/10/17 00:03:15;;;;;;;27.25;19.70;;;;;;;13.37;100.00;99737.48;2196925;78;21139;-85
2022/10/17 00:06:16;;;;;;;27.15;20.85;;;;;;;13.37;100.00;99740.61;2214106;80;20935;-82
2022/10/17 00:09:17;;;;;;;27.62;20.08;;;;;;;13.39;100.00;99746.52;2214458;80;21503;-84
2022/10/17 00:12:18;;;;;;;34.50;22.30;;;;;;;13.36;100.00;99744.23;2214212;80;21056;-84
2022/10/17 00:15:19;;;;;;;27.85;20.35;;;;;;;13.35;100.00;99747.36;2214365;80;21554;-85
2022/10/17 00:18:20;;;;;;;27.07;20.70;;;;;;;13.35;100.00;99748.68;2213520;80;20969;-83
2022/10/17 00:21:20;;;;;;;27.65;20.97;;;;;;;13.36;100.00;99753.44;2214027;80;21004;-85
2022/10/17 00:24:21;;;;;;;29.67;21.07;;;;;;;13.37;100.00;99755.89;2213692;80;21009;-86
2022/10/17 00:27:22;;;;;;;28.00;20.55;;;;;;;13.38;100.00;99753.58;2213677;80;20985;-85
2022/10/17 00:30:22;;;;;;;30.48;20.55;;;;;;;13.41;100.00;99758.17;2247512;79;20970;-87
2022/10/17 00:33:24;;;;;;;28.25;20.37;;;;;;;13.43;100.00;99758.81;2257776;79;21437;-85
2022/10/17 00:36:24;;;;;;;28.30;22.00;;;;;;;13.44;100.00;99765.71;2257980;79;20981;-86
2022/10/17 00:39:25;;;;;;;28.30;22.02;;;;;;;13.42;100.00;99765.06;2258118;79;21049;-86
2022/10/17 00:42:26;;;;;;;29.87;21.55;;;;;;;13.38;100.00;99769.87;2225885;79;20930;-87
2022/10/17 00:45:26;;;;;;;31.80;22.25;;;;;;;13.35;100.00;99770.22;2212285;80;21492;-84
2022/10/17 00:48:27;;;;;;;30.23;22.17;;;;;;;13.31;100.00;99764.96;2213225;80;20989;-84
2022/10/17 00:51:28;;;;;;;26.40;20.25;;;;;;;13.26;100.00;99765.48;2218023;79;20926;-85
2022/10/17 00:54:29;;;;;;;29.35;20.82;;;;;;;13.20;100.00;99770.11;2213442;79;20973;-86
2022/10/17 00:57:29;;;;;;;26.95;21.25;;;;;;;13.14;100.00;99769.92;2238738;79;20911;-87
2022/10/17 01:00:30;;;;;;;25.80;19.42;;;;;;;13.07;100.00;99778.52;2258003;79;21049;-87
2022/10/17 01:03:31;;;;;;;25.40;19.90;;;;;;;13.01;100.00;99777.05;2262934;79;20994;-84
2022/10/17 01:06:32;;;;;;;26.60;18.55;;;;;;;12.86;100.00;99777.41;2258894;78;20989;-86
2022/10/17 01:09:32;;;;;;;27.80;18.92;;;;;;;12.78;100.00;99781.69;2258060;79;20965;-85
2022/10/17 01:12:33;;;;;;;31.80;21.97;;;;;;;12.73;100.00;99767.44;2258450;79;21004;-84
2022/10/17 01:15:34;;;;;;;28.10;19.95;;;;;;;12.69;100.00;99773.50;2259516;79;20953;-84
2022/10/17 01:18:34;;;;;;;25.32;18.98;;;;;;;12.64;100.00;99774.52;2219375;79;20946;-86
2022/10/17 01:21:35;;;;;;;24.65;18.92;;;;;;;12.55;100.00;99772.88;2213958;80;20980;-86
2022/10/17 01:24:36;;;;;;;28.80;21.40;;;;;;;12.43;100.00;99769.75;2196606;81;21094;-86
2022/10/17 01:27:37;;;;;;;28.40;19.45;;;;;;;12.30;100.00;99769.45;2180352;82;20972;-86
2022/10/17 01:30:37;;;;;;;28.38;19.98;;;;;;;12.26;100.00;99768.64;2179773;82;20948;-86
2022/10/17 01:33:38;;;;;;;26.93;21.02;;;;;;;12.18;100.00;99770.28;2179845;82;21036;-84
2022/10/17 01:36:39;;;;;;;30.68;21.40;;;;;;;12.15;100.00;99775.84;2179871;81;20964;-86
2022/10/17 01:39:40;;;;;;;27.25;20.60;;;;;;;12.13;100.00;99773.88;2180506;82;20985;-85
2022/10/17 01:42:40;;;;;;;30.30;20.82;;;;;;;12.11;100.00;99778.47;2180433;82;21049;-84
2022/10/17 01:45:41;;;;;;;30.40;21.93;;;;;;;12.09;100.00;99778.32;2180425;82;21092;-85
2022/10/17 01:48:42;;;;;;;33.85;22.10;;;;;;;12.08;100.00;99779.30;2188345;81;21545;-85
2022/10/17 01:51:43;;;;;;;28.12;21.62;;;;;;;12.05;100.00;99786.99;2189495;81;21497;-85
2022/10/17 01:54:43;;;;;;;33.15;23.25;;;;;;;11.98;100.00;99783.86;2189564;81;20952;-85
2022/10/17 01:57:44;;;;;;;36.83;27.37;;;;;;;11.88;100.00;99783.52;2187607;81;20939;-85
2022/10/17 02:00:45;;;;;;;38.48;25.10;;;;;;;11.77;100.00;99782.98;2175754;80;20997;-86
2022/10/17 02:03:45;;;;;;;32.55;23.20;;;;;;;11.71;100.00;99781.84;2207133;80;20978;-85
2022/10/17 02:06:46;;;;;;;35.63;23.18;;;;;;;11.63;100.00;99781.33;2180596;82;20942;-85
2022/10/17 02:09:47;;;;;;;32.95;22.77;;;;;;;11.60;100.00;99792.62;2174043;82;21039;-85
2022/10/17 02:12:47;;;;;;;32.35;22.58;;;;;;;11.61;100.00;99791.17;2173293;82;20953;-86
2022/10/17 02:15:48;;;;;;;35.90;22.93;;;;;;;11.55;100.00;99796.22;2173243;82;20976;-86
2022/10/17 02:18:49;;;;;;;27.27;21.65;;;;;;;11.51;100.00;99798.81;2171834;82;20982;-84
2022/10/17 02:21:49;;;;;;;31.85;22.62;;;;;;;11.50;100.00;99799.80;2180555;81;20960;-86
2022/10/17 02:24:50;;;;;;;31.35;22.30;;;;;;;11.39;100.00;99796.48;2172992;82;21117;-87
2022/10/17 02:27:51;;;;;;;35.05;23.87;;;;;;;11.33;100.00;99791.87;2214754;79;21000;-85
2022/10/17 02:30:52;;;;;;;30.72;20.48;;;;;;;11.29;100.00;99789.73;2192933;79;20990;-85
2022/10/17 02:33:52;;;;;;;34.88;23.90;;;;;;;11.25;100.00;99787.93;2224743;79;21013;-89
2022/10/17 02:36:53;;;;;;;32.13;22.42;;;;;;;11.19;100.00;99796.91;2221591;79;21446;-88
2022/10/17 02:39:54;;;;;;;31.10;21.62;;;;;;;11.19;100.00;99799.53;2219494;79;21004;-85
2022/10/17 02:42:54;;;;;;;33.60;22.10;;;;;;;11.20;100.00;99800.67;2213667;78;20934;-87
2022/10/17 02:45:55;;;;;;;35.23;22.67;;;;;;;11.19;100.00;99798.22;2212544;80;21014;-87
2022/10/17 02:48:56;;;;;;;31.97;23.10;;;;;;;11.11;100.00;99794.57;2219196;79;20997;-86
2022/10/17 02:51:57;;;;;;;34.05;23.70;;;;;;;10.99;100.00;99797.14;2222722;80;21056;-84
2022/10/17 02:54:58;;;;;;;31.87;22.40;;;;;;;10.97;100.00;99802.19;2236165;79;20910;-85
2022/10/17 02:57:59;;;;;;;35.00;23.73;;;;;;;10.95;100.00;99804.14;2246521;79;21484;-86
2022/10/17 03:00:59;;;;;;;34.65;22.73;;;;;;;10.97;100.00;99802.19;2261190;79;20993;-86
2022/10/17 03:04:00;;;;;;;34.08;22.85;;;;;;;10.91;100.00;99800.20;2250830;79;20974;-85
2022/10/17 03:07:01;;;;;;;36.75;24.23;;;;;;;10.88;100.00;99798.72;2248166;79;21575;-87
2022/10/17 03:10:02;;;;;;;32.55;23.75;;;;;;;10.85;100.00;99795.08;2248645;79;20907;-90
2022/10/17 03:13:02;;;;;;;36.08;25.27;;;;;;;10.71;100.00;99789.94;2247996;79;21020;-90
2022/10/17 03:16:05;;;;;;;35.38;24.70;;;;;;;10.65;100.00;99794.47;2248417;79;20986;-90
2022/10/17 03:19:06;;;;;;;34.27;22.77;;;;;;;10.60;100.00;99794.09;2250627;79;20963;-89
2022/10/17 03:22:07;;;;;;;31.65;22.73;;;;;;;10.54;100.00;99797.34;2251308;79;20958;-89
2022/10/17 03:25:08;;;;;;;40.12;22.45;;;;;;;10.51;100.00;99799.80;2249614;79;20985;-90
2022/10/17 03:28:08;;;;;;;35.40;22.95;;;;;;;10.49;100.00;99806.13;2249015;79;21195;-91
2022/10/17 03:31:09;;;;;;;34.40;22.22;;;;;;;10.44;100.00;99813.16;2248703;79;21014;-90
2022/10/17 03:34:10;;;;;;;31.62;22.85;;;;;;;10.39;100.00;99814.08;2248432;79;20951;-89
2022/10/17 03:37:10;;;;;;;34.85;22.48;;;;;;;10.35;100.00;99814.06;2248368;79;20973;-90
2022/10/17 03:40:11;;;;;;;33.05;23.10;;;;;;;10.33;100.00;99814.67;2248522;79;20938;-91
2022/10/17 03:43:12;;;;;;;35.83;22.37;;;;;;;10.33;100.00;99824.33;2248398;79;20965;-90
2022/10/17 03:46:13;;;;;;;32.05;22.17;;;;;;;10.32;100.00;99818.76;2248505;79;21487;-90
2022/10/17 03:49:13;;;;;;;32.17;21.80;;;;;;;10.29;100.00;99830.36;2248348;79;21429;-92
2022/10/17 03:52:14;;;;;;;35.60;22.17;;;;;;;10.31;100.00;99837.56;2248540;79;21008;-92
2022/10/17 03:55:15;;;;;;;36.90;23.10;;;;;;;10.29;100.00;99834.77;2248492;79;20934;-90
2022/10/17 03:58:16;;;;;;;34.92;23.75;;;;;;;10.27;100.00;99838.03;2248533;79;21440;-90
2022/10/17 04:01:16;;;;;;;40.03;23.30;;;;;;;10.20;100.00;99840.39;2248954;79;20958;-91
2022/10/17 04:04:17;;;;;;;35.45;23.18;;;;;;;10.13;100.00;99841.95;2248244;79;21001;-90
2022/10/17 04:07:18;;;;;;;35.30;23.45;;;;;;;10.12;100.00;99843.75;2248507;79;20977;-89
2022/10/17 04:10:18;;;;;;;32.00;23.40;;;;;;;10.13;100.00;99841.95;2248765;79;20938;-91
2022/10/17 04:13:19;;;;;;;31.17;22.70;;;;;;;10.15;100.00;99847.40;2250236;79;20959;-88
2022/10/17 04:16:20;;;;;;;32.90;22.40;;;;;;;10.16;100.00;99849.52;2250806;79;20918;-86
2022/10/17 04:19:21;;;;;;;32.23;23.38;;;;;;;10.16;100.00;99852.97;2250616;79;21001;-89
2022/10/17 04:22:21;;;;;;;31.05;22.55;;;;;;;10.13;100.00;99852.42;2251428;79;21082;-88
2022/10/17 04:25:22;;;;;;;31.60;23.07;;;;;;;10.11;100.00;99859.61;2251542;79;20983;-87
2022/10/17 04:28:23;;;;;;;29.92;21.75;;;;;;;10.15;100.00;99857.86;2250470;79;21016;-87
2022/10/17 04:31:23;;;;;;;31.17;22.10;;;;;;;10.16;100.00;99860.81;2251671;79;20947;-88
2022/10/17 04:34:24;;;;;;;35.68;21.75;;;;;;;10.15;100.00;99867.03;2250489;79;21586;-89
2022/10/17 04:37:25;;;;;;;33.95;22.93;;;;;;;10.12;100.00;99858.14;2248864;79;21035;-90
2022/10/17 04:40:26;;;;;;;35.45;23.73;;;;;;;10.08;100.00;99863.84;2248815;79;21524;-90
2022/10/17 04:43:26;;;;;;;35.08;23.38;;;;;;;10.03;100.00;99849.05;2249212;79;20981;-88
2022/10/17 04:46:27;;;;;;;32.63;23.50;;;;;;;9.99;100.00;99855.08;2249039;79;20985;-88
2022/10/17 04:49:28;;;;;;;33.40;24.05;;;;;;;9.98;100.00;99857.36;2248907;79;20958;-89
2022/10/17 04:52:29;;;;;;;32.95;23.80;;;;;;;9.99;100.00;99855.08;2249091;79;20982;-88
2022/10/17 04:55:29;;;;;;;35.10;23.85;;;;;;;9.98;100.00;99856.05;2248977;79;20994;-89
2022/10/17 04:58:30;;;;;;;35.68;24.23;;;;;;;9.99;100.00;99849.84;2248963;79;20934;-89
2022/10/17 05:01:31;;;;;;;31.52;23.85;;;;;;;10.02;100.00;99848.72;2251091;79;20997;-90
2022/10/17 05:04:31;;;;;;;32.73;24.50;;;;;;;10.03;100.00;99847.74;2260882;79;20975;-92
2022/10/17 05:07:32;;;;;;;30.17;22.10;;;;;;;10.06;100.00;99851.36;2265437;79;20973;-88
2022/10/17 05:10:36;;;;;;;36.15;24.43;;;;;;;10.10;100.00;99849.63;2265373;79;21013;-89
2022/10/17 05:13:36;;;;;;;30.23;22.17;;;;;;;10.11;100.00;99846.03;2265859;79;21020;-88
2022/10/17 05:16:40;;;;;;;33.63;23.47;;;;;;;10.13;100.00;99845.39;2265425;79;20994;-89
2022/10/17 05:19:41;;;;;;;31.52;22.77;;;;;;;10.13;100.00;99862.89;2266179;78;21004;-91
2022/10/17 05:22:43;;;;;;;34.90;25.40;;;;;;;10.12;100.00;99869.92;2265066;79;21480;-90
2022/10/17 05:25:44;;;;;;;40.33;24.85;;;;;;;10.11;100.00;99865.66;2267294;78;21031;-89
2022/10/17 05:28:45;;;;;;;35.68;22.87;;;;;;;10.12;100.00;99864.69;2266718;78;21009;-92
2022/10/17 05:31:46;;;;;;;35.73;23.83;;;;;;;10.14;100.00;99867.15;2265836;78;21033;-86
2022/10/17 05:34:46;;;;;;;33.48;24.75;;;;;;;10.22;100.00;99869.39;2265985;79;20938;-89
2022/10/17 05:37:47;;;;;;;36.13;24.90;;;;;;;10.29;100.00;99874.86;2264851;79;20953;-90
2022/10/17 05:40:48;;;;;;;36.20;25.65;;;;;;;10.35;100.00;99882.13;2265035;79;20961;-92
2022/10/17 05:43:49;;;;;;;33.98;24.57;;;;;;;10.45;100.00;99885.98;2265080;78;20989;-90
2022/10/17 05:46:50;;;;;;;34.92;24.02;;;;;;;10.53;100.00;99893.91;2265199;79;20945;-90
2022/10/17 05:49:51;;;;;;;36.70;25.20;;;;;;;10.58;100.00;99889.02;2265022;78;20977;-90
2022/10/17 05:52:51;;;;;;;34.53;25.00;;;;;;;10.66;100.00;99900.88;2264787;79;20966;-90
2022/10/17 05:55:52;;;;;;;37.88;26.77;;;;;;;10.76;100.00;99902.11;2265020;78;20958;-90
2022/10/17 05:58:53;;;;;;;39.53;27.37;;;;;;;10.86;100.00;99910.70;2265116;79;21036;-91
2022/10/17 06:01:53;;;;;;;38.20;26.45;;;;;;;10.98;100.00;99914.73;2264912;79;20965;-91
2022/10/17 06:04:54;;;;;;;42.15;30.00;;;;;;;11.04;100.00;99930.32;2264744;79;20950;-90
2022/10/17 06:07:55;;;;;;;49.18;31.45;;;;;;;11.11;100.00;99936.60;2264814;78;20938;-89
2022/10/17 06:10:55;;;;;;;37.93;29.00;;;;;;;11.17;100.00;99936.00;2265111;79;20934;-89
2022/10/17 06:13:56;;;;;;;37.95;28.15;;;;;;;11.29;100.00;99939.19;2264886;78;21344;-89
2022/10/17 06:16:58;;;;;;;35.80;26.25;;;;;;;11.34;100.00;99943.00;2265157;79;20938;-89
2022/10/17 06:19:58;;;;;;;31.52;24.27;;;;;;;11.38;100.00;99941.70;2266472;79;20965;-89
2022/10/17 06:22:59;;;;;;;32.15;24.10;;;;;;;11.50;100.00;99942.73;2266018;79;21507;-91
2022/10/17 06:26:00;;;;;;;34.25;24.57;;;;;;;11.63;100.00;99939.22;2266859;78;20973;-88
2022/10/17 06:29:01;;;;;;;29.85;22.95;;;;;;;11.78;100.00;99938.13;2265973;79;21677;-90
2022/10/17 06:32:01;;;;;;;29.65;23.27;;;;;;;11.90;100.00;99941.67;2266351;79;20989;-88
2022/10/17 06:35:02;;;;;;;27.95;20.85;;;;;;;12.05;100.00;99942.36;2267093;79;20993;-89
2022/10/17 06:38:03;;;;;;;30.40;22.22;;;;;;;12.18;100.00;99951.94;2265475;78;21531;-92
2022/10/17 06:41:07;;;;;;;26.87;20.30;;;;;;;12.32;100.00;99957.88;2264930;79;20961;-90
2022/10/17 06:44:10;;;;;;;23.12;19.50;;;;;;;12.45;100.00;99957.42;2264719;78;20950;-91
2022/10/17 06:47:10;;;;;;;26.10;19.73;;;;;;;12.59;100.00;99966.46;2264798;79;21064;-89
2022/10/17 06:50:11;;;;;;;25.37;18.80;;;;;;;12.69;100.00;99975.83;2264571;79;21032;-88
2022/10/17 06:53:11;;;;;;;26.68;18.98;;;;;;;12.82;100.00;99980.63;2264220;78;21069;-89
2022/10/17 06:56:12;;;;;;;26.65;18.95;;;;;;;12.94;100.00;99985.06;2264415;79;21610;-89
2022/10/17 06:59:14;;;;;;;27.65;20.20;;;;;;;13.04;100.00;99985.22;2266045;79;20995;-93
2022/10/17 07:02:15;;;;;;;22.90;17.65;;;;;;;13.16;100.00;99985.70;2264672;78;21008;-91
2022/10/17 07:05:18;;;;;;;24.02;18.23;;;;;;;13.27;100.00;99989.38;2264811;78;20994;-90
2022/10/17 07:08:18;;;;;;;20.27;17.55;;;;;;;13.36;100.00;99984.43;2265177;79;21536;-91
2022/10/17 07:11:19;;;;;;;29.42;19.60;;;;;;;13.50;100.00;99988.67;2265284;78;21007;-89
2022/10/17 07:14:20;;;;;;;20.80;17.92;;;;;;;13.62;100.00;99986.85;2264682;79;21000;-89
2022/10/17 07:17:21;;;;;;;47.73;23.42;;;;;;;13.73;100.00;99979.09;2264224;79;21136;-89
2022/10/17 07:20:22;;;;;;;171.22;47.48;;;;;;;13.84;100.00;99989.75;2264407;79;20985;-90
2022/10/17 07:23:23;;;;;;;142.25;46.18;;;;;;;13.98;100.00;99990.84;2264463;79;20992;-90
2022/10/17 07:26:24;;;;;;;69.97;32.00;;;;;;;14.13;100.00;99986.50;2264654;78;20973;-89
2022/10/17 07:29:24;;;;;;;131.37;40.58;;;;;;;14.27;100.00;99991.06;2266545;78;21033;-88
2022/10/17 07:32:25;;;;;;;41.58;21.37;;;;;;;14.40;100.00;99997.08;2267376;78;21428;-88
2022/10/17 07:35:26;;;;;;;23.95;18.20;;;;;;;14.54;100.00;100010.03;2267481;79;20957;-86
2022/10/17 07:38:26;;;;;;;23.45;17.00;;;;;;;14.62;100.00;100017.89;2266596;78;21059;-88
2022/10/17 07:41:27;;;;;;;27.80;19.27;;;;;;;14.73;100.00;100008.29;2264893;78;20953;-90
2022/10/17 07:44:28;;;;;;;25.12;19.32;;;;;;;14.81;100.00;100012.16;2264941;79;21064;-91
2022/10/17 07:47:29;;;;;;;22.05;17.27;;;;;;;14.90;100.00;100013.75;2265159;78;20985;-89
2022/10/17 07:50:31;;;;;;;22.65;18.07;;;;;;;14.99;100.00;100014.51;2264984;79;21448;-90
2022/10/17 07:53:32;;;;;;;23.15;17.00;;;;;;;15.10;100.00;100007.52;2264735;78;21544;-89
2022/10/17 07:56:33;;;;;;;22.10;17.35;;;;;;;15.20;100.00;100009.91;2264621;79;21041;-91
2022/10/17 07:59:34;;;;;;;22.87;17.87;;;;;;;15.29;100.00;100010.17;2264916;79;20922;-91
2022/10/17 08:02:34;;;;;;;23.70;16.40;;;;;;;15.38;100.00;100003.81;2264558;79;20941;-90
2022/10/17 08:05:35;;;;;;;20.17;16.17;;;;;;;15.47;100.00;100004.56;2251157;78;21021;-90
2022/10/17 08:08:36;;;;;;;24.63;17.20;;;;;;;15.58;100.00;100001.48;2248627;79;21026;-91
2022/10/17 08:11:37;;;;;;;22.15;17.05;;;;;;;15.70;100.00;100001.88;2248585;79;21512;-88
2022/10/17 08:14:38;;;;;;;19.80;16.82;;;;;;;15.84;100.00;100002.39;2248552;79;20985;-89
2022/10/17 08:17:39;;;;;;;20.10;16.52;;;;;;;15.96;100.00;100006.70;2248700;79;21009;-90
2022/10/17 08:20:40;;;;;;;21.62;17.23;;;;;;;16.07;100.00;100007.56;2248791;79;20942;-84
2022/10/17 08:23:40;;;;;;;23.10;15.50;;;;;;;16.21;100.00;100007.55;2248173;79;20989;-84
2022/10/17 08:26:42;;;;;;;24.85;17.23;;;;;;;16.33;100.00;100004.43;2248136;79;21504;-85
2022/10/17 08:29:42;;;;;;;21.25;14.75;;;;;;;16.44;100.00;100005.27;2248660;79;21001;-84
2022/10/17 08:32:43;;;;;;;18.42;13.95;;;;;;;16.57;100.00;100004.61;2249018;79;21056;-85
2022/10/17 08:35:44;;;;;;;18.07;14.98;;;;;;;16.67;100.00;100002.48;2248728;79;20946;-86
2022/10/17 08:38:44;;;;;;;17.37;13.93;;;;;;;16.80;100.00;100007.10;2248747;79;20958;-86
2022/10/17 08:41:45;;;;;;;16.42;14.73;;;;;;;16.89;100.00;100017.88;2248038;79;21029;-86
2022/10/17 08:44:46;;;;;;;17.05;14.23;;;;;;;16.99;100.00;100015.73;2248369;79;21449;-86
2022/10/17 08:47:47;;;;;;;18.00;13.32;;;;;;;17.08;100.00;100010.63;2248167;79;20998;-88
2022/10/17 08:50:47;;;;;;;17.27;13.60;;;;;;;17.17;100.00;100014.78;2247997;79;20974;-84
2022/10/17 08:53:48;;;;;;;15.00;13.18;;;;;;;17.26;100.00;100016.78;2248083;79;21012;-85
2022/10/17 08:56:49;;;;;;;17.75;13.65;;;;;;;17.35;100.00;100012.48;2247933;79;21001;-86
2022/10/17 08:59:50;;;;;;;18.50;13.80;;;;;;;17.45;100.00;100009.50;2248186;79;20990;-89
2022/10/17 09:02:51;;;;;;;17.27;13.62;;;;;;;17.53;100.00;100012.52;2248147;79;21032;-85
2022/10/17 09:05:52;;;;;;;22.75;13.62;;;;;;;17.62;100.00;100007.38;2248127;79;21060;-85
2022/10/17 09:08:53;;;;;;;20.65;12.90;;;;;;;17.69;100.00;100005.60;2248680;79;21013;-89
2022/10/17 09:11:54;;;;;;;14.07;12.55;;;;;;;17.77;100.00;100005.48;2249655;79;20957;-87
2022/10/17 09:14:55;;;;;;;18.55;14.60;;;;;;;17.85;100.00;100004.01;2248773;79;21025;-87
2022/10/17 09:17:55;;;;;;;16.93;13.32;;;;;;;17.93;100.00;100002.22;2248124;79;20993;-87
2022/10/17 09:20:57;;;;;;;17.62;13.80;;;;;;;18.01;100.00;100002.84;2248170;79;20930;-87
2022/10/17 09:23:57;;;;;;;16.67;13.03;;;;;;;18.10;100.00;99997.69;2248148;79;21527;-86
2022/10/17 09:26:58;;;;;;;30.32;15.93;;;;;;;18.18;100.00;99993.55;2248158;79;20985;-88
2022/10/17 09:29:59;;;;;;;36.53;14.28;;;;;;;18.27;100.00;99992.05;2248126;79;20973;-88
2022/10/17 09:32:59;;;;;;;21.80;13.65;;;;;;;18.35;100.00;99996.67;2250104;79;21025;-87
2022/10/17 09:36:00;;;;;;;18.00;11.15;;;;;;;18.44;100.00;99996.80;2250191;79;20974;-87
2022/10/17 09:39:01;;;;;;;15.60;11.73;;;;;;;18.54;100.00;100000.41;2248186;79;20977;-86
2022/10/17 09:42:02;;;;;;;19.57;12.40;;;;;;;18.64;100.00;100007.97;2248329;79;20966;-87
2022/10/17 09:45:03;;;;;;;13.20;11.55;;;;;;;18.75;100.00;100000.81;2248218;79;21001;-87
2022/10/17 09:48:04;;;;;;;17.67;11.70;;;;;;;18.87;100.00;100003.68;2248130;79;21461;-89
2022/10/17 09:51:05;;;;;;;13.13;11.18;;;;;;;18.95;100.00;100004.30;2247967;79;21001;-88
2022/10/17 09:54:05;;;;;;;14.15;12.43;;;;;;;19.03;100.00;99998.80;2247969;79;20978;-88
2022/10/17 09:57:06;;;;;;;16.20;12.82;;;;;;;19.11;100.00;100004.91;2248294;79;22056;-87
2022/10/17 10:00:07;;;;;;;13.58;12.05;;;;;;;19.19;100.00;100006.04;2248060;79;20997;-88
2022/10/17 10:03:08;;;;;;;15.00;11.40;;;;;;;19.25;100.00;100007.89;2248100;79;21005;-87
2022/10/17 10:06:08;;;;;;;14.90;11.60;;;;;;;19.32;100.00;100006.05;2261290;79;21547;-87
2022/10/17 10:09:09;;;;;;;18.25;11.93;;;;;;;19.38;100.00;100007.87;2264621;78;21052;-88
2022/10/17 10:12:10;;;;;;;20.50;12.33;;;;;;;19.44;100.00;100009.72;2264551;78;21000;-88
2022/10/17 10:15:10;;;;;;;33.85;15.58;;;;;;;19.51;100.00;100007.88;2264591;78;21012;-88
2022/10/17 10:18:11;;;;;;;18.70;13.38;;;;;;;19.55;100.00;100004.28;2264542;79;20942;-87
2022/10/17 10:21:12;;;;;;;15.78;12.75;;;;;;;19.60;100.00;100004.53;2264466;78;21001;-88
2022/10/17 10:24:13;;;;;;;14.63;12.60;;;;;;;19.64;100.00;100000.42;2265684;78;21084;-88
2022/10/17 10:27:13;;;;;;;13.88;11.83;;;;;;;19.71;100.00;100001.23;2265220;79;20946;-87
2022/10/17 10:30:14;;;;;;;12.90;11.22;;;;;;;19.75;100.00;99991.84;2264541;78;21642;-89
2022/10/17 10:33:15;;;;;;;12.90;11.55;;;;;;;19.81;100.00;99999.47;2265011;78;20992;-87
2022/10/17 10:36:16;;;;;;;13.45;11.00;;;;;;;19.83;100.00;99989.44;2266468;79;20945;-89
2022/10/17 10:39:16;;;;;;;12.70;11.40;;;;;;;19.86;100.00;99991.19;2265435;78;20992;-88
2022/10/17 10:42:17;;;;;;;17.23;12.07;;;;;;;19.89;100.00;99991.27;2264714;78;21003;-88
2022/10/17 10:45:18;;;;;;;13.22;10.40;;;;;;;19.93;100.00;99986.34;2264674;79;21488;-88
2022/10/17 10:48:20;;;;;;;18.32;14.10;;;;;;;19.97;100.00;99992.89;2264593;79;21484;-88
2022/10/17 10:51:21;;;;;;;23.32;15.13;;;;;;;20.01;100.00;99988.26;2264382;79;21003;-88
2022/10/17 10:54:22;;;;;;;22.05;15.98;;;;;;;20.01;100.00;99978.95;2264581;78;20949;-89
2022/10/17 10:57:22;;;;;;;26.42;18.23;;;;;;;20.05;100.00;99982.03;2264418;79;21035;-87
2022/10/17 11:00:23;;;;;;;18.42;13.90;;;;;;;20.09;100.00;99981.38;2264510;79;20957;-88
2022/10/17 11:03:24;;;;;;;13.80;11.20;;;;;;;20.13;100.00;99976.48;2264603;79;21460;-88
2022/10/17 11:06:24;;;;;;;16.10;11.63;;;;;;;20.16;100.00;99977.38;2264137;79;21040;-89
2022/10/17 11:09:25;;;;;;;12.28;11.00;;;;;;;20.18;100.00;99972.14;2264534;78;21008;-88
2022/10/17 11:12:26;;;;;;;16.95;11.05;;;;;;;20.21;100.00;99969.59;2264452;78;21487;-88
2022/10/17 11:15:27;;;;;;;15.23;11.80;;;;;;;20.25;100.00;99973.45;2265263;79;21594;-88
2022/10/17 11:18:27;;;;;;;14.90;11.30;;;;;;;20.31;100.00;99975.27;2265518;79;20942;-88
2022/10/17 11:21:28;;;;;;;12.82;10.70;;;;;;;20.34;100.00;99969.52;2264635;78;20921;-88
2022/10/17 11:24:29;;;;;;;11.70;10.60;;;;;;;20.37;100.00;99973.59;2264603;79;21051;-88
2022/10/17 11:27:29;;;;;;;12.25;10.98;;;;;;;20.38;100.00;99971.22;2264407;79;21116;-88
2022/10/17 11:30:30;;;;;;;12.85;10.55;;;;;;;20.40;100.00;99967.86;2264630;79;22015;-88
2022/10/17 11:33:31;;;;;;;12.82;11.55;;;;;;;20.42;100.00;99968.45;2264414;79;21003;-88
2022/10/17 11:36:31;;;;;;;12.65;11.35;;;;;;;20.45;100.00;99968.87;2265334;79;20973;-87
2022/10/17 11:39:32;;;;;;;12.85;10.93;;;;;;;20.50;100.00;99964.77;2266323;79;20996;-87
2022/10/17 11:42:33;;;;;;;14.85;10.93;;;;;;;20.52;100.00;99963.52;2265343;79;21048;-88
2022/10/17 11:45:34;;;;;;;11.95;10.78;;;;;;;20.55;100.00;99962.27;2264351;79;21543;-87
2022/10/17 11:48:34;;;;;;;12.43;10.95;;;;;;;20.57;100.00;99961.53;2264301;79;21004;-87
2022/10/17 11:51:35;;;;;;;14.95;12.33;;;;;;;20.59;100.00;99948.85;2264460;79;21597;-87
2022/10/17 11:54:36;;;;;;;22.42;14.50;;;;;;;20.61;100.00;99949.45;2264513;79;21455;-87
2022/10/17 11:57:36;;;;;;;22.62;16.12;;;;;;;20.65;100.00;99947.97;2264438;78;21607;-87
2022/10/17 12:00:37;;;;;;;16.05;12.58;;;;;;;20.67;100.00;99944.09;2264480;78;21013;-88
2022/10/17 12:03:38;;;;;;;25.10;19.52;;;;;;;20.68;100.00;99941.72;2264217;79;20977;-87
2022/10/17 12:06:38;;;;;;;20.15;15.55;;;;;;;20.71;100.00;99945.27;2250628;79;21065;-88
2022/10/17 12:09:39;;;;;;;20.12;12.93;;;;;;;20.72;100.00;99941.58;2248010;79;21040;-88
2022/10/17 12:12:40;;;;;;;14.87;11.80;;;;;;;20.72;100.00;99942.91;2248222;79;21418;-88
2022/10/17 12:15:41;;;;;;;15.88;10.85;;;;;;;20.75;100.00;99940.32;2248447;79;21492;-88
2022/10/17 12:18:41;;;;;;;19.65;14.95;;;;;;;20.79;100.00;99931.41;2248473;79;21508;-88
2022/10/17 12:21:42;;;;;;;17.75;12.88;;;;;;;20.82;100.00;99933.11;2248387;79;20997;-89
2022/10/17 12:24:43;;;;;;;18.12;11.70;;;;;;;20.83;100.00;99931.27;2248550;79;21057;-88
2022/10/17 12:27:47;;;;;;;15.38;11.35;;;;;;;20.86;100.00;99940.17;2248893;79;20962;-89
2022/10/17 12:30:48;;;;;;;17.20;13.48;;;;;;;20.87;100.00;99937.80;2249078;79;21461;-88
2022/10/17 12:33:48;;;;;;;20.75;12.85;;;;;;;20.89;100.00;99934.40;2248626;79;20958;-89
2022/10/17 12:36:49;;;;;;;17.70;11.53;;;;;;;20.89;100.00;99929.08;2248403;79;21001;-89
2022/10/17 12:39:50;;;;;;;14.50;10.78;;;;;;;20.89;100.00;99929.89;2249169;79;20988;-89
2022/10/17 12:42:51;;;;;;;12.23;10.20;;;;;;;20.90;100.00;99930.70;2249180;79;20998;-88
2022/10/17 12:45:51;;;;;;;15.13;9.43;;;;;;;20.90;100.00;99930.19;2248768;79;20968;-87
2022/10/17 12:48:52;;;;;;;11.50;9.85;;;;;;;20.89;100.00;99921.91;2248235;79;20973;-88
2022/10/17 12:51:53;;;;;;;12.63;9.35;;;;;;;20.89;100.00;99928.55;2248367;79;20946;-87
2022/10/17 12:54:54;;;;;;;10.68;9.53;;;;;;;20.90;100.00;99929.38;2248567;79;20946;-88
2022/10/17 12:57:55;;;;;;;12.13;9.65;;;;;;;20.92;100.00;99920.64;2248457;79;20993;-88
2022/10/17 13:00:56;;;;;;;12.30;10.40;;;;;;;20.92;100.00;99928.62;2248565;79;20990;-88
2022/10/17 13:03:57;;;;;;;16.97;12.78;;;;;;;20.91;100.00;99923.83;2248172;79;20985;-87
2022/10/17 13:06:57;;;;;;;18.35;14.70;;;;;;;20.91;100.00;99921.68;2248230;79;21006;-87
2022/10/17 13:10:03;;;;;;;24.55;16.70;;;;;;;20.90;100.00;99924.86;2248571;79;20947;-87
2022/10/17 13:13:01;;;;;;;23.32;19.32;;;;;;;20.89;100.00;99927.23;2248769;79;21604;-87
2022/10/17 13:16:01;;;;;;;26.65;19.05;;;;;;;20.88;100.00;99926.93;2248341;79;20985;-90
2022/10/17 13:19:02;;;;;;;23.65;15.78;;;;;;;20.88;100.00;99922.94;2248492;79;21561;-87
2022/10/17 13:22:03;;;;;;;28.35;20.68;;;;;;;20.87;100.00;99921.31;2250032;79;20989;-87
2022/10/17 13:25:05;;;;;;;27.15;18.98;;;;;;;20.87;100.00;99919.17;2248768;79;20959;-87
2022/10/17 13:28:06;;;;;;;20.00;15.43;;;;;;;20.86;100.00;99918.36;2249554;79;20998;-88
2022/10/17 13:31:06;;;;;;;15.75;12.23;;;;;;;20.85;100.00;99922.05;2248299;79;21302;-87
2022/10/17 13:34:07;;;;;;;21.45;17.48;;;;;;;20.84;100.00;99923.58;2248215;79;21496;-87
2022/10/17 13:37:08;;;;;;;19.77;15.83;;;;;;;20.82;100.00;99920.32;2248257;79;21481;-87